createdAt,value
2022-12-09T00:00:54.059Z,99375.97
2022-12-09T00:01:33.787Z,99379.09
2022-12-09T00:02:14.232Z,99376.06
2022-12-09T00:02:54.897Z,99375.97
2022-12-09T00:03:42.940Z,99381.34
2022-12-09T00:04:36.971Z,99372.03
2022-12-09T00:05:30.928Z,99384.66
2022-12-09T00:06:34.764Z,99382.84
2022-12-09T00:07:29.027Z,99384.78
2022-12-09T00:08:22.926Z,99382.56
2022-12-09T00:09:04.890Z,99382.56
2022-12-09T00:09:45.020Z,99383.41
2022-12-09T00:10:25.893Z,99388.50
2022-12-09T00:11:06.865Z,99382.47
2022-12-09T00:11:47.783Z,99383.84
2022-12-09T00:12:28.002Z,99384.81
2022-12-09T00:13:07.800Z,99382.59
2022-12-09T00:13:48.040Z,99379.03
2022-12-09T00:14:29.029Z,99386.72
2022-12-09T00:15:09.037Z,99381.81
2022-12-09T00:15:50.092Z,99343.81
2022-12-09T00:16:31.972Z,99368.25
2022-12-09T00:17:12.928Z,99379.16
2022-12-09T00:17:52.833Z,99379.91
2022-12-09T00:18:33.840Z,99374.78
2022-12-09T00:19:13.929Z,99388.88
2022-12-09T00:19:54.827Z,99384.91
2022-12-09T00:20:34.861Z,99385.25
2022-12-09T00:21:39.000Z,99384.19
2022-12-09T00:22:19.022Z,99387.50
2022-12-09T00:22:59.774Z,99381.31
2022-12-09T00:23:39.833Z,99389.19
2022-12-09T00:24:21.857Z,99393.28
2022-12-09T00:25:08.882Z,99391.53
2022-12-09T00:26:02.806Z,99398.91
2022-12-09T00:26:56.767Z,99395.06
2022-12-09T00:27:50.940Z,99396.69
2022-12-09T00:28:44.976Z,99398.31
2022-12-09T00:29:38.777Z,99401.41
2022-12-09T00:30:26.787Z,99396.81
2022-12-09T00:31:01.032Z,99402.16
2022-12-09T00:31:48.170Z,99402.16
2022-12-09T00:32:23.082Z,99397.47
2022-12-09T00:33:09.753Z,99400.03
2022-12-09T00:33:44.531Z,99400.47
2022-12-09T00:34:31.996Z,99410.31
2022-12-09T00:35:12.813Z,99402.59
2022-12-09T00:35:52.761Z,99394.47
2022-12-09T00:36:34.828Z,99399.50
2022-12-09T00:37:15.760Z,99413.09
2022-12-09T00:37:57.108Z,99403.25
2022-12-09T00:38:37.889Z,99410.72
2022-12-09T00:39:17.914Z,99414.13
2022-12-09T00:39:57.787Z,99404.22
2022-12-09T00:40:38.935Z,99396.44
2022-12-09T00:41:20.782Z,99403.06
2022-12-09T00:42:02.068Z,99375.53
2022-12-09T00:42:42.716Z,99395.91
2022-12-09T00:43:22.824Z,99401.34
2022-12-09T00:44:04.759Z,99407.44
2022-12-09T00:44:44.783Z,99395.25
2022-12-09T00:45:24.754Z,99401.78
2022-12-09T00:46:05.318Z,99391.59
2022-12-09T00:46:46.028Z,99404.31
2022-12-09T00:47:25.984Z,99403.91
2022-12-09T00:48:06.840Z,99406.16
2022-12-09T00:48:48.791Z,99390.44
2022-12-09T00:49:28.730Z,99400.59
2022-12-09T00:50:11.232Z,99390.22
2022-12-09T00:50:52.864Z,99395.91
2022-12-09T00:51:33.020Z,99400.38
2022-12-09T00:52:13.764Z,99403.69
2022-12-09T00:52:53.968Z,99398.44
2022-12-09T00:53:34.727Z,99402.63
2022-12-09T00:54:16.094Z,99388.94
2022-12-09T00:54:56.837Z,99399.22
2022-12-09T00:55:37.256Z,99403.59
2022-12-09T00:56:18.777Z,99394.50
2022-12-09T00:56:59.845Z,99387.25
2022-12-09T00:57:39.941Z,99410.84
2022-12-09T00:58:20.933Z,99403.91
2022-12-09T00:59:00.791Z,99402.41
2022-12-09T00:59:40.905Z,99394.41
2022-12-09T01:00:21.934Z,99406.47
2022-12-09T01:01:01.862Z,99410.75
2022-12-09T01:01:42.785Z,99407.84
2022-12-09T01:02:22.854Z,99396.53
2022-12-09T01:03:02.972Z,99403.16
2022-12-09T01:03:43.021Z,99406.69
2022-12-09T01:04:24.022Z,99406.69
2022-12-09T01:05:04.035Z,99408.16
2022-12-09T01:05:44.902Z,99403.47
2022-12-09T01:06:30.008Z,99410.94
2022-12-09T01:07:10.892Z,99399.84
2022-12-09T01:07:51.066Z,99414.91
2022-12-09T01:08:32.039Z,99410.94
2022-12-09T01:09:12.343Z,99408.38
2022-12-09T01:09:52.731Z,99397.38
2022-12-09T01:10:33.217Z,99396.00
2022-12-09T01:11:19.848Z,99407.09
2022-12-09T01:12:00.345Z,99415.25
2022-12-09T01:12:40.754Z,99399.41
2022-12-09T01:13:22.862Z,99416.72
2022-12-09T01:14:07.883Z,99407.31
2022-12-09T01:14:48.102Z,99404.97
2022-12-09T01:15:28.858Z,99404.13
2022-12-09T01:16:10.461Z,99404.13
2022-12-09T01:16:50.874Z,99409.47
2022-12-09T01:17:31.806Z,99399.41
2022-12-09T01:18:13.765Z,99400.38
2022-12-09T01:18:55.306Z,99397.47
2022-12-09T01:19:35.993Z,99406.69
2022-12-09T01:20:17.264Z,99390.44
2022-12-09T01:21:05.977Z,99401.78
2022-12-09T01:21:45.808Z,99408.94
2022-12-09T01:22:25.860Z,99397.28
2022-12-09T01:23:07.055Z,99404.53
2022-12-09T01:23:47.997Z,99405.59
2022-12-09T01:24:28.756Z,99376.25
2022-12-09T01:25:09.875Z,99400.50
2022-12-09T01:25:51.071Z,99392.59
2022-12-09T01:26:32.803Z,99379.25
2022-12-09T01:27:13.163Z,99394.72
2022-12-09T01:27:53.756Z,99389.50
2022-12-09T01:28:34.133Z,99397.69
2022-12-09T01:29:16.033Z,99401.56
2022-12-09T01:29:55.744Z,99392.91
2022-12-09T01:30:36.718Z,99391.50
2022-12-09T01:31:21.926Z,99391.50
2022-12-09T01:32:02.829Z,99391.28
2022-12-09T01:32:43.628Z,99396.28
2022-12-09T01:33:23.770Z,99397.59
2022-12-09T01:34:03.945Z,99394.06
2022-12-09T01:34:43.662Z,99387.31
2022-12-09T01:35:24.921Z,99388.19
2022-12-09T01:36:04.888Z,99387.66
2022-12-09T01:36:44.782Z,99397.69
2022-12-09T01:37:25.987Z,99390.00
2022-12-09T01:38:05.760Z,99391.28
2022-12-09T01:38:46.733Z,99389.81
2022-12-09T01:39:26.925Z,99401.13
2022-12-09T01:40:08.849Z,99387.78
2022-12-09T01:40:53.756Z,99389.28
2022-12-09T01:41:34.685Z,99385.88
2022-12-09T01:42:26.884Z,99384.91
2022-12-09T01:43:08.006Z,99389.50
2022-12-09T01:43:48.722Z,99391.81
2022-12-09T01:44:33.661Z,99386.38
2022-12-09T01:45:30.776Z,99389.81
2022-12-09T01:46:10.779Z,99390.34
2022-12-09T01:46:58.977Z,99377.44
2022-12-09T01:47:33.534Z,99382.88
2022-12-09T01:48:29.842Z,99374.22
2022-12-09T01:49:04.409Z,99389.13
2022-12-09T01:49:54.925Z,99352.44
2022-12-09T01:50:29.397Z,99388.41
2022-12-09T01:51:30.188Z,99390.00
2022-12-09T01:52:28.705Z,99383.91
2022-12-09T01:53:09.903Z,99371.97
2022-12-09T01:53:52.653Z,99376.78
2022-12-09T01:54:34.019Z,99385.84
2022-12-09T01:55:15.691Z,99382.31
2022-12-09T01:55:56.980Z,99388.94
2022-12-09T01:56:40.888Z,99383.25
2022-12-09T01:57:21.774Z,99386.81
2022-12-09T01:58:01.681Z,99388.94
2022-12-09T01:58:41.712Z,99386.25
2022-12-09T01:59:22.898Z,99372.91
2022-12-09T02:00:04.105Z,99387.31
2022-12-09T02:00:44.658Z,99382.09
2022-12-09T02:01:26.061Z,99378.03
2022-12-09T02:02:08.767Z,99379.94
2022-12-09T02:02:52.403Z,99380.94
2022-12-09T02:03:33.075Z,99386.59
2022-12-09T02:04:13.840Z,99368.34
2022-12-09T02:04:55.828Z,99377.44
2022-12-09T02:05:37.893Z,99379.75
2022-12-09T02:06:18.665Z,99376.22
2022-12-09T02:07:00.097Z,99384.16
2022-12-09T02:07:41.712Z,99382.00
2022-12-09T02:08:25.948Z,99379.31
2022-12-09T02:09:08.056Z,99385.94
2022-12-09T02:09:53.218Z,99380.81
2022-12-09T02:10:34.670Z,99370.69
2022-12-09T02:11:38.893Z,99387.88
2022-12-09T02:12:38.856Z,99374.19
2022-12-09T02:13:27.994Z,99384.13
2022-12-09T02:14:33.736Z,99387.47
2022-12-09T02:15:27.823Z,99384.81
2022-12-09T02:16:11.987Z,99393.97
2022-12-09T02:17:36.802Z,99389.81
2022-12-09T02:18:33.835Z,99392.69
2022-12-09T02:19:56.651Z,99381.47
2022-12-09T02:20:44.704Z,99394.06
2022-12-09T02:21:48.908Z,99388.09
2022-12-09T02:22:30.427Z,99386.69
2022-12-09T02:23:43.672Z,99382.31
2022-12-09T02:24:46.414Z,99379.00
2022-12-09T02:25:52.779Z,99387.75
2022-12-09T02:26:59.839Z,99380.47
2022-12-09T02:28:04.621Z,99385.38
2022-12-09T02:29:16.105Z,99388.59
2022-12-09T02:30:23.880Z,99393.19
2022-12-09T02:31:58.870Z,99388.91
2022-12-09T02:33:23.243Z,99388.06
2022-12-09T02:34:33.651Z,99388.72
2022-12-09T02:35:19.060Z,99386.78
2022-12-09T02:36:28.648Z,99392.66
2022-12-09T02:37:24.740Z,99385.63
2022-12-09T02:38:27.699Z,99401.56
2022-12-09T02:39:16.902Z,99389.66
2022-12-09T02:40:07.323Z,99390.19
2022-12-09T02:41:02.669Z,99390.00
2022-12-09T02:41:38.076Z,99388.19
2022-12-09T02:42:28.712Z,99386.56
2022-12-09T02:43:02.840Z,99393.63
2022-12-09T02:43:56.090Z,99386.91
2022-12-09T02:44:31.918Z,99370.56
2022-12-09T02:45:19.644Z,99390.00
2022-12-09T02:45:54.794Z,99370.78
2022-12-09T02:46:42.748Z,99392.75
2022-12-09T02:47:20.017Z,99389.78
2022-12-09T02:48:01.939Z,99386.69
2022-12-09T02:48:54.121Z,99389.66
2022-12-09T02:49:36.801Z,99392.34
2022-12-09T02:50:19.708Z,99394.19
2022-12-09T02:51:00.627Z,99365.13
2022-12-09T02:51:42.804Z,99379.13
2022-12-09T02:52:25.851Z,99384.75
2022-12-09T02:53:16.777Z,99387.22
2022-12-09T02:54:21.605Z,99391.50
2022-12-09T02:55:21.724Z,99386.03
2022-12-09T02:56:17.633Z,99391.59
2022-12-09T02:57:16.607Z,99384.84
2022-12-09T02:58:13.613Z,99388.50
2022-12-09T02:58:55.862Z,99388.50
2022-12-09T02:59:36.708Z,99391.69
2022-12-09T03:00:20.696Z,99385.63
2022-12-09T03:01:04.505Z,99381.13
2022-12-09T03:02:09.872Z,99374.16
2022-12-09T03:02:56.203Z,99380.94
2022-12-09T03:03:40.771Z,99395.34
2022-12-09T03:04:27.945Z,99371.72
2022-12-09T03:05:34.898Z,99376.63
2022-12-09T03:06:23.580Z,99381.56
2022-12-09T03:07:27.947Z,99376.56
2022-12-09T03:08:39.746Z,99380.47
2022-12-09T03:09:18.804Z,99372.59
2022-12-09T03:10:08.837Z,99382.31
2022-12-09T03:11:11.619Z,99374.16
2022-12-09T03:11:52.596Z,99375.25
2022-12-09T03:12:35.680Z,99374.41
2022-12-09T03:13:46.833Z,99375.16
2022-12-09T03:14:46.675Z,99368.09
2022-12-09T03:15:31.749Z,99369.72
2022-12-09T03:16:35.931Z,99373.88
2022-12-09T03:17:20.649Z,99367.78
2022-12-09T03:18:01.802Z,99377.41
2022-12-09T03:18:44.622Z,99365.25
2022-12-09T03:19:52.625Z,99378.69
2022-12-09T03:20:35.759Z,99371.94
2022-12-09T03:21:17.144Z,99364.16
2022-12-09T03:22:03.948Z,99380.69
2022-12-09T03:22:48.684Z,99370.16
2022-12-09T03:23:32.772Z,99372.41
2022-12-09T03:24:16.688Z,99370.59
2022-12-09T03:25:23.811Z,99375.94
2022-12-09T03:26:05.551Z,99374.00
2022-12-09T03:26:40.732Z,99375.50
2022-12-09T03:27:34.550Z,99374.84
2022-12-09T03:28:14.756Z,99369.50
2022-12-09T03:29:02.562Z,99372.78
2022-12-09T03:29:38.037Z,99372.47
2022-12-09T03:30:25.858Z,99351.75
2022-12-09T03:31:00.823Z,99348.78
2022-12-09T03:31:42.952Z,99362.88
2022-12-09T03:32:27.683Z,99373.72
2022-12-09T03:33:09.737Z,99369.47
2022-12-09T03:33:54.924Z,99373.44
2022-12-09T03:34:42.608Z,99366.69
2022-12-09T03:35:28.705Z,99350.28
2022-12-09T03:36:11.760Z,99359.66
2022-12-09T03:37:01.843Z,99358.56
2022-12-09T03:37:56.623Z,99360.91
2022-12-09T03:38:38.555Z,99360.38
2022-12-09T03:39:32.840Z,99364.75
2022-12-09T03:40:14.066Z,99356.66
2022-12-09T03:41:08.595Z,99358.47
2022-12-09T03:41:48.254Z,99353.13
2022-12-09T03:42:35.614Z,99345.03
2022-12-09T03:43:18.593Z,99352.16
2022-12-09T03:44:01.156Z,99353.84
2022-12-09T03:44:53.612Z,99356.66
2022-12-09T03:45:27.807Z,99350.13
2022-12-09T03:46:01.684Z,99357.50
2022-12-09T03:46:42.740Z,99349.69
2022-12-09T03:47:17.945Z,99353.03
2022-12-09T03:47:59.700Z,99359.75
2022-12-09T03:48:39.573Z,99349.84
2022-12-09T03:49:19.582Z,99364.56
2022-12-09T03:49:59.918Z,99348.63
2022-12-09T03:50:56.592Z,99356.44
2022-12-09T03:52:03.720Z,99352.41
2022-12-09T03:52:48.551Z,99351.31
2022-12-09T03:53:44.944Z,99350.25
2022-12-09T03:54:40.836Z,99352.81
2022-12-09T03:55:36.183Z,99348.34
2022-12-09T03:56:34.814Z,99356.25
2022-12-09T03:57:14.096Z,99357.53
2022-12-09T03:57:56.748Z,99356.56
2022-12-09T03:58:39.850Z,99351.31
2022-12-09T03:59:25.675Z,99346.41
2022-12-09T04:00:02.228Z,99353.47
2022-12-09T04:00:52.037Z,99354.09
2022-12-09T04:01:27.969Z,99355.81
2022-12-09T04:02:15.830Z,99351.03
2022-12-09T04:02:50.801Z,99349.84
2022-12-09T04:03:37.849Z,99353.47
2022-12-09T04:04:12.994Z,99323.59
2022-12-09T04:04:53.561Z,99345.81
2022-12-09T04:05:27.835Z,99349.00
2022-12-09T04:06:02.387Z,99357.75
2022-12-09T04:06:43.607Z,99353.91
2022-12-09T04:07:17.616Z,99349.44
2022-12-09T04:07:51.761Z,99355.53
2022-12-09T04:08:33.012Z,99356.06
2022-12-09T04:09:07.728Z,99352.88
2022-12-09T04:09:42.103Z,99355.41
2022-12-09T04:10:23.785Z,99346.03
2022-12-09T04:10:57.553Z,99348.25
2022-12-09T04:11:32.809Z,99360.63
2022-12-09T04:12:13.550Z,99342.38
2022-12-09T04:12:47.606Z,99348.38
2022-12-09T04:13:21.582Z,99358.28
2022-12-09T04:14:01.812Z,99355.97
2022-12-09T04:14:35.792Z,99355.31
2022-12-09T04:15:10.530Z,99358.53
2022-12-09T04:15:50.762Z,99356.47
2022-12-09T04:16:24.673Z,99357.88
2022-12-09T04:16:58.250Z,99359.69
2022-12-09T04:17:38.633Z,99359.69
2022-12-09T04:18:12.947Z,99355.03
2022-12-09T04:18:47.520Z,99345.38
2022-12-09T04:19:28.900Z,99361.22
2022-12-09T04:20:02.629Z,99353.94
2022-12-09T04:20:36.464Z,99365.88
2022-12-09T04:21:19.544Z,99361.41
2022-12-09T04:21:53.791Z,99359.28
2022-12-09T04:22:27.545Z,99365.56
2022-12-09T04:23:08.731Z,99367.91
2022-12-09T04:23:43.558Z,99372.94
2022-12-09T04:24:17.376Z,99372.53
2022-12-09T04:24:57.518Z,99367.81
2022-12-09T04:25:31.572Z,99367.69
2022-12-09T04:26:06.531Z,99367.09
2022-12-09T04:26:46.831Z,99371.66
2022-12-09T04:27:20.633Z,99367.16
2022-12-09T04:27:55.297Z,99365.88
2022-12-09T04:28:36.643Z,99371.03
2022-12-09T04:29:10.663Z,99367.59
2022-12-09T04:29:45.015Z,99369.31
2022-12-09T04:30:24.758Z,99364.72
2022-12-09T04:30:58.818Z,99365.69
2022-12-09T04:31:32.912Z,99365.44
2022-12-09T04:32:13.596Z,99365.00
2022-12-09T04:32:47.670Z,99367.50
2022-12-09T04:33:21.703Z,99362.88
2022-12-09T04:34:06.727Z,99371.44
2022-12-09T04:34:42.537Z,99359.69
2022-12-09T04:35:16.491Z,99366.28
2022-12-09T04:35:56.586Z,99375.81
2022-12-09T04:36:30.831Z,99375.28
2022-12-09T04:37:05.201Z,99377.75
2022-12-09T04:37:46.763Z,99374.41
2022-12-09T04:38:20.816Z,99366.66
2022-12-09T04:38:54.821Z,99372.16
2022-12-09T04:39:34.489Z,99378.59
2022-12-09T04:40:09.204Z,99373.25
2022-12-09T04:40:43.475Z,99377.19
2022-12-09T04:41:23.543Z,99366.22
2022-12-09T04:41:57.528Z,99382.75
2022-12-09T04:42:32.016Z,99369.41
2022-12-09T04:43:12.776Z,99383.06
2022-12-09T04:43:48.965Z,99368.44
2022-12-09T04:44:23.867Z,99386.38
2022-12-09T04:45:03.492Z,99385.28
2022-12-09T04:45:37.861Z,99388.94
2022-12-09T04:46:16.123Z,99388.69
2022-12-09T04:46:57.809Z,99380.69
2022-12-09T04:47:31.632Z,99378.03
2022-12-09T04:48:05.432Z,99379.75
2022-12-09T04:48:45.774Z,99363.28
2022-12-09T04:49:19.851Z,99382.72
2022-12-09T04:50:00.607Z,99387.09
2022-12-09T04:50:40.489Z,99362.88
2022-12-09T04:51:17.084Z,99378.34
2022-12-09T04:51:51.628Z,99385.19
2022-12-09T04:52:31.817Z,99381.22
2022-12-09T04:53:05.822Z,99387.72
2022-12-09T04:53:40.810Z,99391.47
2022-12-09T04:54:21.734Z,99395.94
2022-12-09T04:54:56.596Z,99386.03
2022-12-09T04:55:30.218Z,99394.03
2022-12-09T04:56:25.592Z,99395.97
2022-12-09T04:56:59.705Z,99394.03
2022-12-09T04:57:33.456Z,99396.50
2022-12-09T04:58:14.742Z,99391.50
2022-12-09T04:58:49.941Z,99396.81
2022-12-09T04:59:30.874Z,99400.88
2022-12-09T05:00:12.816Z,99393.44
2022-12-09T05:00:53.799Z,99397.50
2022-12-09T05:01:34.856Z,99409.44
2022-12-09T05:02:15.661Z,99400.06
2022-12-09T05:02:55.626Z,99386.81
2022-12-09T05:03:36.868Z,99404.84
2022-12-09T05:04:18.889Z,99405.28
2022-12-09T05:04:59.780Z,99402.50
2022-12-09T05:05:40.008Z,99391.06
2022-12-09T05:06:21.543Z,99398.88
2022-12-09T05:07:01.589Z,99399.63
2022-12-09T05:07:42.610Z,99395.31
2022-12-09T05:08:31.062Z,99401.56
2022-12-09T05:09:18.928Z,99405.41
2022-12-09T05:10:14.313Z,99400.06
2022-12-09T05:11:08.588Z,99408.59
2022-12-09T05:12:02.896Z,99391.72
2022-12-09T05:12:56.757Z,99390.84
2022-12-09T05:13:50.870Z,99404.97
2022-12-09T05:14:45.473Z,99405.59
2022-12-09T05:15:32.874Z,99383.41
2022-12-09T05:16:17.481Z,99388.53
2022-12-09T05:17:04.556Z,99397.38
2022-12-09T05:17:38.626Z,99400.06
2022-12-09T05:18:25.800Z,99388.59
2022-12-09T05:18:59.884Z,99393.53
2022-12-09T05:19:47.503Z,99403.56
2022-12-09T05:20:21.598Z,99405.25
2022-12-09T05:21:03.584Z,99401.72
2022-12-09T05:21:46.407Z,99403.13
2022-12-09T05:22:26.615Z,99393.63
2022-12-09T05:23:09.567Z,99400.59
2022-12-09T05:23:51.733Z,99401.97
2022-12-09T05:24:47.690Z,99403.34
2022-12-09T05:25:42.811Z,99405.81
2022-12-09T05:26:26.594Z,99392.56
2022-12-09T05:27:20.723Z,99388.53
2022-12-09T05:28:14.505Z,99396.19
2022-12-09T05:29:08.689Z,99395.16
2022-12-09T05:30:02.672Z,99393.94
2022-12-09T05:30:57.777Z,99385.09
2022-12-09T05:31:44.801Z,99395.97
2022-12-09T05:32:18.779Z,99394.94
2022-12-09T05:33:05.949Z,99399.38
2022-12-09T05:33:40.758Z,99397.25
2022-12-09T05:34:27.638Z,99395.34
2022-12-09T05:35:02.694Z,99391.69
2022-12-09T05:35:53.569Z,99396.81
2022-12-09T05:36:31.726Z,99393.41
2022-12-09T05:37:12.905Z,99388.19
2022-12-09T05:37:53.792Z,99390.84
2022-12-09T05:38:34.506Z,99384.66
2022-12-09T05:39:15.847Z,99394.69
2022-12-09T05:39:55.875Z,99383.06
2022-12-09T05:40:36.590Z,99364.50
2022-12-09T05:41:17.785Z,99402.41
2022-12-09T05:41:58.799Z,99401.13
2022-12-09T05:42:41.626Z,99401.84
2022-12-09T05:43:23.823Z,99390.00
2022-12-09T05:44:04.626Z,99388.59
2022-12-09T05:44:45.556Z,99401.75
2022-12-09T05:45:25.816Z,99404.63
2022-12-09T05:46:08.806Z,99395.69
2022-12-09T05:46:50.622Z,99404.75
2022-12-09T05:47:30.681Z,99405.81
2022-12-09T05:48:11.748Z,99398.56
2022-12-09T05:48:52.579Z,99409.66
2022-12-09T05:49:32.984Z,99398.88
2022-12-09T05:50:15.154Z,99403.25
2022-12-09T05:51:12.508Z,99397.25
2022-12-09T05:51:54.320Z,99399.28
2022-12-09T05:52:35.753Z,99403.47
2022-12-09T05:53:23.661Z,99398.97
2022-12-09T05:54:19.495Z,99399.19
2022-12-09T05:55:13.538Z,99393.00
2022-12-09T05:56:07.588Z,99401.56
2022-12-09T05:57:03.776Z,99408.16
2022-12-09T05:57:58.577Z,99402.59
2022-12-09T05:58:45.656Z,99401.97
2022-12-09T05:59:19.538Z,99395.88
2022-12-09T06:00:07.199Z,99387.88
2022-12-09T06:00:41.855Z,99403.47
2022-12-09T06:01:29.591Z,99404.97
2022-12-09T06:02:09.801Z,99404.97
2022-12-09T06:02:57.730Z,99403.03
2022-12-09T06:03:31.662Z,99400.03
2022-12-09T06:04:12.815Z,99400.88
2022-12-09T06:04:55.611Z,99403.44
2022-12-09T06:05:36.630Z,99407.72
2022-12-09T06:06:20.777Z,99395.97
2022-12-09T06:07:02.846Z,99395.88
2022-12-09T06:07:44.019Z,99398.97
2022-12-09T06:08:24.673Z,99403.34
2022-12-09T06:09:11.579Z,99401.28
2022-12-09T06:09:53.528Z,99402.78
2022-12-09T06:10:34.882Z,99387.22
2022-12-09T06:11:25.840Z,99406.19
2022-12-09T06:12:06.668Z,99397.03
2022-12-09T06:12:47.815Z,99392.97
2022-12-09T06:13:28.631Z,99405.13
2022-12-09T06:14:09.519Z,99369.06
2022-12-09T06:14:49.887Z,99397.13
2022-12-09T06:15:33.677Z,99394.44
2022-12-09T06:16:15.622Z,99405.13
2022-12-09T06:16:57.496Z,99397.66
2022-12-09T06:17:38.061Z,99406.41
2022-12-09T06:18:18.658Z,99397.22
2022-12-09T06:18:58.701Z,99378.88
2022-12-09T06:19:39.864Z,99392.50
2022-12-09T06:20:20.593Z,99393.78
2022-12-09T06:21:00.440Z,99398.66
2022-12-09T06:21:41.645Z,99396.75
2022-12-09T06:22:21.848Z,99406.38
2022-12-09T06:23:03.734Z,99397.63
2022-12-09T06:23:47.632Z,99401.66
2022-12-09T06:24:27.591Z,99398.13
2022-12-09T06:25:07.559Z,99406.88
2022-12-09T06:25:50.818Z,99399.72
2022-12-09T06:26:35.594Z,99401.41
2022-12-09T06:27:15.672Z,99399.50
2022-12-09T06:27:56.771Z,99407.53
2022-12-09T06:28:37.769Z,99392.66
2022-12-09T06:29:17.498Z,99401.41
2022-12-09T06:29:58.477Z,99405.59
2022-12-09T06:30:38.386Z,99408.50
2022-12-09T06:31:18.899Z,99399.50
2022-12-09T06:32:00.526Z,99401.22
2022-12-09T06:32:41.641Z,99403.03
2022-12-09T06:33:52.364Z,99393.41
2022-12-09T06:34:21.593Z,99410.19
2022-12-09T06:35:02.908Z,99396.97
2022-12-09T06:35:43.947Z,99392.66
2022-12-09T06:36:25.922Z,99407.00
2022-12-09T06:37:13.760Z,99400.69
2022-12-09T06:38:07.509Z,99404.09
2022-12-09T06:39:09.269Z,99390.97
2022-12-09T06:40:03.384Z,99401.94
2022-12-09T06:40:58.410Z,99398.53
2022-12-09T06:41:56.589Z,99404.41
2022-12-09T06:42:37.631Z,99406.31
2022-12-09T06:43:20.028Z,99400.97
2022-12-09T06:44:04.769Z,99405.38
2022-12-09T06:44:45.475Z,99389.28
2022-12-09T06:45:27.613Z,99408.91
2022-12-09T06:46:08.858Z,99408.38
2022-12-09T06:46:48.727Z,99403.75
2022-12-09T06:47:29.765Z,99407.19
2022-12-09T06:48:11.681Z,99409.00
2022-12-09T06:48:53.900Z,99410.81
2022-12-09T06:49:35.548Z,99391.50
2022-12-09T06:50:17.687Z,99411.66
2022-12-09T06:50:58.674Z,99394.16
2022-12-09T06:51:41.059Z,99410.72
2022-12-09T06:52:22.843Z,99412.44
2022-12-09T06:53:04.870Z,99408.06
2022-12-09T06:53:46.764Z,99398.53
2022-12-09T06:54:27.834Z,99415.09
2022-12-09T06:55:08.958Z,99411.47
2022-12-09T06:55:49.647Z,99405.47
2022-12-09T06:56:31.392Z,99416.59
2022-12-09T06:57:13.851Z,99412.09
2022-12-09T06:57:55.719Z,99411.56
2022-12-09T06:58:36.724Z,99415.63
2022-12-09T06:59:17.586Z,99406.09
2022-12-09T06:59:58.822Z,99419.03
2022-12-09T07:00:39.773Z,99425.09
2022-12-09T07:01:26.861Z,99409.44
2022-12-09T07:02:08.920Z,99418.06
2022-12-09T07:02:49.791Z,99412.81
2022-12-09T07:03:30.775Z,99410.03
2022-12-09T07:04:12.624Z,99416.03
2022-12-09T07:04:53.649Z,99405.44
2022-12-09T07:05:34.577Z,99414.31
2022-12-09T07:06:32.767Z,99423.19
2022-12-09T07:07:15.101Z,99401.16
2022-12-09T07:07:59.654Z,99407.34
2022-12-09T07:08:41.781Z,99413.47
2022-12-09T07:09:28.694Z,99413.47
2022-12-09T07:10:13.868Z,99416.75
2022-12-09T07:10:51.745Z,99412.25
2022-12-09T07:11:44.538Z,99407.59
2022-12-09T07:12:18.560Z,99414.19
2022-12-09T07:13:05.457Z,99408.84
2022-12-09T07:13:39.448Z,99412.38
2022-12-09T07:14:27.527Z,99409.59
2022-12-09T07:15:01.956Z,99422.09
2022-12-09T07:15:43.437Z,99411.41
2022-12-09T07:16:23.883Z,99407.16
2022-12-09T07:17:04.645Z,99415.44
2022-12-09T07:17:45.508Z,99413.31
2022-12-09T07:18:25.357Z,99413.44
2022-12-09T07:19:06.469Z,99411.63
2022-12-09T07:19:47.442Z,99413.63
2022-12-09T07:20:28.572Z,99413.63
2022-12-09T07:21:22.747Z,99411.66
2022-12-09T07:22:03.694Z,99425.41
2022-12-09T07:22:44.363Z,99416.75
2022-12-09T07:23:24.809Z,99419.34
2022-12-09T07:24:09.471Z,99414.84
2022-12-09T07:24:51.657Z,99418.38
2022-12-09T07:25:33.294Z,99418.13
2022-12-09T07:26:15.740Z,99413.75
2022-12-09T07:26:59.404Z,99411.06
2022-12-09T07:27:43.627Z,99414.59
2022-12-09T07:28:24.435Z,99414.47
2022-12-09T07:29:20.759Z,99414.47
2022-12-09T07:30:16.429Z,99416.25
2022-12-09T07:31:10.493Z,99413.31
2022-12-09T07:32:06.446Z,99413.56
2022-12-09T07:33:00.731Z,99419.31
2022-12-09T07:33:55.546Z,99407.13
2022-12-09T07:34:51.721Z,99404.56
2022-12-09T07:35:46.654Z,99412.13
2022-12-09T07:36:44.729Z,99419.31
2022-12-09T07:37:31.699Z,99413.31
2022-12-09T07:38:05.602Z,99416.72
2022-12-09T07:38:53.330Z,99410.53
2022-12-09T07:39:27.573Z,99405.09
2022-12-09T07:40:15.582Z,99399.41
2022-12-09T07:40:50.969Z,99407.97
2022-12-09T07:41:39.448Z,99410.53
2022-12-09T07:42:13.827Z,99387.25
2022-12-09T07:42:59.308Z,99405.31
2022-12-09T07:43:42.716Z,99392.34
2022-12-09T07:44:23.499Z,99411.16
2022-12-09T07:45:04.574Z,99410.94
2022-12-09T07:45:45.636Z,99418.84
2022-12-09T07:46:29.146Z,99418.22
2022-12-09T07:47:10.882Z,99414.56
2022-12-09T07:47:51.623Z,99417.16
2022-12-09T07:48:33.543Z,99425.13
2022-12-09T07:49:14.463Z,99395.59
2022-12-09T07:49:56.809Z,99415.16
2022-12-09T07:50:39.565Z,99416.13
2022-12-09T07:51:20.448Z,99397.94
2022-12-09T07:52:00.777Z,99415.28
2022-12-09T07:52:41.553Z,99386.94
2022-12-09T07:53:21.673Z,99406.28
2022-12-09T07:54:02.682Z,99419.41
2022-12-09T07:54:43.681Z,99413.13
2022-12-09T07:55:24.626Z,99405.00
2022-12-09T07:56:11.932Z,99413.13
2022-12-09T07:56:53.611Z,99421.00
2022-12-09T07:57:35.324Z,99390.88
2022-12-09T07:58:17.577Z,99419.91
2022-12-09T07:58:59.582Z,99427.00
2022-12-09T07:59:40.367Z,99420.63
2022-12-09T08:00:21.480Z,99425.50
2022-12-09T08:01:02.339Z,99416.97
2022-12-09T08:01:43.833Z,99425.50
2022-12-09T08:02:25.732Z,99424.03
2022-12-09T08:03:06.538Z,99420.66
2022-12-09T08:03:48.484Z,99422.63
2022-12-09T08:04:30.817Z,99412.03
2022-12-09T08:05:13.019Z,99422.72
2022-12-09T08:06:00.687Z,99429.69
2022-12-09T08:06:44.684Z,99418.34
2022-12-09T08:07:26.545Z,99419.69
2022-12-09T08:08:06.564Z,99404.31
2022-12-09T08:08:48.264Z,99422.84
2022-12-09T08:09:28.537Z,99419.91
2022-12-09T08:10:10.741Z,99431.78
2022-12-09T08:10:53.389Z,99422.03
2022-12-09T08:11:37.867Z,99429.69
2022-12-09T08:12:19.575Z,99418.72
2022-12-09T08:13:00.620Z,99423.44
2022-12-09T08:13:41.725Z,99422.13
2022-12-09T08:14:22.730Z,99418.41
2022-12-09T08:15:02.383Z,99427.78
2022-12-09T08:15:42.856Z,99432.16
2022-12-09T08:16:26.640Z,99423.41
2022-12-09T08:17:08.810Z,99429.47
2022-12-09T08:17:50.349Z,99417.09
2022-12-09T08:18:32.644Z,99429.28
2022-12-09T08:19:12.669Z,99429.47
2022-12-09T08:19:54.053Z,99435.47
2022-12-09T08:20:35.542Z,99429.69
2022-12-09T08:21:21.232Z,99437.38
2022-12-09T08:22:02.434Z,99441.69
2022-12-09T08:22:42.666Z,99432.50
2022-12-09T08:23:24.312Z,99436.03
2022-12-09T08:24:08.064Z,99440.84
2022-12-09T08:24:48.792Z,99437.25
2022-12-09T08:25:29.476Z,99441.56
2022-12-09T08:26:11.389Z,99444.50
2022-12-09T08:26:52.799Z,99440.41
2022-12-09T08:27:34.547Z,99445.75
2022-12-09T08:28:15.701Z,99441.09
2022-12-09T08:28:56.474Z,99441.50
2022-12-09T08:29:38.760Z,99439.66
2022-12-09T08:30:20.483Z,99445.59
2022-12-09T08:31:02.951Z,99445.25
2022-12-09T08:31:44.614Z,99439.63
2022-12-09T08:32:25.700Z,99442.41
2022-12-09T08:33:07.464Z,99430.84
2022-12-09T08:33:48.930Z,99434.25